createdAt,value
2023-03-04T00:01:15.842Z,101184.38
2023-03-04T00:04:17.938Z,101180.81
2023-03-04T00:07:20.135Z,101179.97
2023-03-04T00:10:21.576Z,101188.22
2023-03-04T00:13:24.151Z,101180.09
2023-03-04T00:16:29.076Z,101182.69
2023-03-04T00:19:31.497Z,101178.97
2023-03-04T00:22:32.967Z,101187.09
2023-03-04T00:25:34.507Z,101182.50
2023-03-04T00:28:36.351Z,101188.78
2023-03-04T00:31:38.052Z,101186.97
2023-03-04T00:34:40.542Z,101182.41
2023-03-04T00:37:42.348Z,101185.97
2023-03-04T00:40:44.684Z,101193.06
2023-03-04T00:43:46.177Z,101186.81
2023-03-04T00:46:47.661Z,101184.94
2023-03-04T00:49:49.200Z,101182.25
2023-03-04T00:52:50.817Z,101175.00
2023-03-04T00:55:52.291Z,101177.81
2023-03-04T00:58:53.858Z,101173.41
2023-03-04T01:01:55.400Z,101179.81
2023-03-04T01:04:56.944Z,101180.81
2023-03-04T01:07:58.424Z,101171.09
2023-03-04T01:10:59.902Z,101169.38
2023-03-04T01:14:02.265Z,101166.81
2023-03-04T01:17:05.042Z,101164.97
2023-03-04T01:20:07.788Z,101164.22
2023-03-04T01:23:10.379Z,101162.38
2023-03-04T01:26:11.889Z,101161.41
2023-03-04T01:29:13.386Z,101159.53
2023-03-04T01:32:15.422Z,101153.13
2023-03-04T01:35:16.901Z,101146.84
2023-03-04T01:38:18.456Z,101137.75
2023-03-04T01:41:24.860Z,101133.19
2023-03-04T01:44:26.736Z,101132.34
2023-03-04T01:47:31.059Z,101131.44
2023-03-04T01:50:35.541Z,101118.78
2023-03-04T01:53:37.052Z,101106.22
2023-03-04T01:56:39.946Z,101103.50
2023-03-04T01:59:41.842Z,101101.81
2023-03-04T02:02:43.425Z,101099.22
2023-03-04T02:05:48.556Z,101094.81
2023-03-04T02:08:50.077Z,101090.38
2023-03-04T02:11:52.318Z,101075.25
2023-03-04T02:14:53.850Z,101078.13
2023-03-04T02:17:55.680Z,101076.38
2023-03-04T02:21:00.138Z,101077.34
2023-03-04T02:24:30.578Z,101074.53
2023-03-04T02:27:32.150Z,101075.50
2023-03-04T02:30:35.068Z,101066.41
2023-03-04T02:33:36.626Z,101065.44
2023-03-04T02:36:39.750Z,101069.84
2023-03-04T02:39:46.790Z,101063.44
2023-03-04T02:42:48.298Z,101070.72
2023-03-04T02:45:50.695Z,101064.28
2023-03-04T02:48:53.048Z,101060.75
2023-03-04T02:52:05.496Z,101066.00
2023-03-04T02:55:07.526Z,101063.44
2023-03-04T02:58:10.934Z,101064.41
2023-03-04T03:01:12.640Z,101057.31
2023-03-04T03:04:14.896Z,101061.72
2023-03-04T03:07:18.988Z,101058.28
2023-03-04T03:10:21.317Z,101052.00
2023-03-04T03:13:23.125Z,101054.84
2023-03-04T03:16:25.180Z,101053.09
2023-03-04T03:19:26.788Z,101054.84
2023-03-04T03:22:29.094Z,101053.97
2023-03-04T03:25:30.640Z,101048.53
2023-03-04T03:28:32.494Z,101049.56
2023-03-04T03:31:35.092Z,101036.00
2023-03-04T03:34:36.661Z,101047.56
2023-03-04T03:37:38.453Z,101049.44
2023-03-04T03:40:39.967Z,101043.88
2023-03-04T03:43:41.434Z,101036.63
2023-03-04T03:46:43.106Z,101033.06
2023-03-04T03:49:44.587Z,101039.31
2023-03-04T03:52:46.195Z,101036.63
2023-03-04T03:55:47.669Z,101038.47
2023-03-04T03:58:49.194Z,101035.88
2023-03-04T04:01:50.885Z,101032.28
2023-03-04T04:04:52.491Z,101027.03
2023-03-04T04:07:54.357Z,101030.72
2023-03-04T04:10:55.883Z,101024.44
2023-03-04T04:13:57.388Z,101030.88
2023-03-04T04:16:59.031Z,101020.91
2023-03-04T04:20:00.664Z,101029.00
2023-03-04T04:23:03.514Z,101026.59
2023-03-04T04:26:05.152Z,101025.75
2023-03-04T04:29:06.657Z,101023.88
2023-03-04T04:32:08.955Z,101023.88
2023-03-04T04:35:10.798Z,101024.59
2023-03-04T04:38:12.381Z,101014.63
2023-03-04T04:41:23.600Z,101020.78
2023-03-04T04:44:25.112Z,101010.91
2023-03-04T04:47:26.628Z,101013.63
2023-03-04T04:50:28.130Z,101000.94
2023-03-04T04:53:29.654Z,101004.53
2023-03-04T04:56:31.520Z,101004.53
2023-03-04T04:59:32.991Z,101005.50
2023-03-04T05:02:37.370Z,101008.22
2023-03-04T05:05:38.852Z,101004.66
2023-03-04T05:08:40.451Z,100998.22
2023-03-04T05:11:41.976Z,100995.66
2023-03-04T05:14:43.472Z,100992.97
2023-03-04T05:17:44.965Z,100991.22
2023-03-04T05:20:50.898Z,100988.69
2023-03-04T05:23:52.430Z,100981.81
2023-03-04T05:26:53.964Z,100988.09
2023-03-04T05:29:59.677Z,100979.97
2023-03-04T05:33:01.140Z,100988.09
2023-03-04T05:36:05.010Z,100977.97
2023-03-04T05:39:06.505Z,100977.13
2023-03-04T05:42:08.061Z,100977.00
2023-03-04T05:45:09.918Z,100977.84
2023-03-04T05:48:11.416Z,100982.25
2023-03-04T05:51:13.010Z,100984.00
2023-03-04T05:54:14.726Z,100988.41
2023-03-04T05:57:16.238Z,100984.84
2023-03-04T06:00:18.088Z,100982.97
2023-03-04T06:03:21.871Z,100982.97
2023-03-04T06:06:23.546Z,100979.44
2023-03-04T06:09:25.311Z,100979.56
2023-03-04T06:12:28.688Z,100970.56
2023-03-04T06:15:30.775Z,100985.97
2023-03-04T06:18:32.354Z,100979.84
2023-03-04T06:21:33.817Z,100981.69
2023-03-04T06:24:35.587Z,100976.41
2023-03-04T06:27:37.173Z,100983.69
2023-03-04T06:30:38.735Z,100986.50
2023-03-04T06:33:40.276Z,100979.41
2023-03-04T06:36:41.763Z,100993.78
2023-03-04T06:39:43.375Z,100981.09
2023-03-04T06:42:44.864Z,100978.38
2023-03-04T06:45:46.750Z,100985.53
2023-03-04T06:48:48.280Z,100987.22
2023-03-04T06:51:49.764Z,100981.69
2023-03-04T06:54:51.285Z,100977.97
2023-03-04T06:57:52.830Z,100984.25
2023-03-04T07:00:54.380Z,100980.56
2023-03-04T07:03:56.970Z,100983.09
2023-03-04T07:06:58.515Z,100982.25
2023-03-04T07:10:00.256Z,100981.41
2023-03-04T07:13:01.975Z,100987.66
2023-03-04T07:16:05.047Z,100986.81
2023-03-04T07:19:06.619Z,100981.69
2023-03-04T07:22:08.133Z,100984.25
2023-03-04T07:25:10.073Z,100986.25
2023-03-04T07:28:11.799Z,100981.81
2023-03-04T07:31:24.412Z,100989.94
2023-03-04T07:34:26.005Z,100990.09
2023-03-04T07:37:27.521Z,100982.09
2023-03-04T07:40:29.109Z,100988.38
2023-03-04T07:43:30.719Z,100987.38
2023-03-04T07:46:32.311Z,100988.25
2023-03-04T07:49:33.799Z,100998.06
2023-03-04T07:52:41.337Z,100998.66
2023-03-04T07:55:42.843Z,100995.78
2023-03-04T07:58:45.065Z,100992.81
2023-03-04T08:01:46.539Z,100987.25
2023-03-04T08:04:48.004Z,100992.44
2023-03-04T08:07:49.474Z,100984.19
2023-03-04T08:10:50.962Z,100983.91
2023-03-04T08:13:54.199Z,100994.44
2023-03-04T08:16:55.790Z,100983.47
2023-03-04T08:19:57.330Z,100972.53
2023-03-04T08:22:58.807Z,100974.94
2023-03-04T08:26:00.282Z,100978.22
2023-03-04T08:29:05.303Z,100979.66
2023-03-04T08:32:06.846Z,100976.66
2023-03-04T08:35:08.387Z,100971.13
2023-03-04T08:38:09.858Z,100972.69
2023-03-04T08:41:12.504Z,100970.66
2023-03-04T08:44:14.541Z,100975.09
2023-03-04T08:47:16.531Z,100975.09
2023-03-04T08:50:18.090Z,100974.94
2023-03-04T08:53:20.680Z,100974.94
2023-03-04T08:56:22.443Z,100977.53
2023-03-04T08:59:24.122Z,100985.66
2023-03-04T09:02:25.653Z,100979.22
2023-03-04T09:05:27.196Z,100981.09
2023-03-04T09:08:29.482Z,100985.53
2023-03-04T09:11:31.321Z,100980.97
2023-03-04T09:14:35.650Z,100981.09
2023-03-04T09:17:37.724Z,100984.66
2023-03-04T09:20:39.401Z,100983.81
2023-03-04T09:23:41.113Z,100989.22
2023-03-04T09:26:42.624Z,100988.38
2023-03-04T09:29:45.668Z,100990.06
2023-03-04T09:32:47.327Z,101001.91
2023-03-04T09:35:49.797Z,101006.31
2023-03-04T09:38:51.477Z,101004.50
2023-03-04T09:41:57.332Z,100992.66
2023-03-04T09:44:59.042Z,100998.91
2023-03-04T09:48:01.716Z,100991.50
2023-03-04T09:51:09.054Z,100997.06
2023-03-04T09:54:16.474Z,100997.94
2023-03-04T09:57:24.426Z,100998.78
2023-03-04T10:00:25.908Z,101002.34
2023-03-04T10:03:56.369Z,100996.81
2023-03-04T10:06:58.696Z,100986.81
2023-03-04T10:10:04.692Z,100984.09
2023-03-04T10:13:14.772Z,100987.66
2023-03-04T10:16:21.393Z,100981.41
2023-03-04T10:19:27.983Z,100979.66
2023-03-04T10:22:35.082Z,100984.94
2023-03-04T10:25:41.601Z,100985.09
2023-03-04T10:28:43.108Z,100984.22
2023-03-04T10:31:46.200Z,100973.38
2023-03-04T10:34:47.955Z,100980.66
2023-03-04T10:37:51.087Z,100976.94
2023-03-04T10:40:52.661Z,100977.09
2023-03-04T10:44:04.955Z,100977.84
2023-03-04T10:47:10.126Z,100977.97
2023-03-04T10:50:25.831Z,100979.66
2023-03-04T10:53:37.619Z,100983.25
2023-03-04T10:56:45.387Z,100986.81
2023-03-04T10:59:58.704Z,100984.09
2023-03-04T11:03:21.802Z,100980.38
2023-03-04T11:06:23.368Z,100973.25
2023-03-04T11:09:29.886Z,100975.81
2023-03-04T11:12:34.681Z,100972.13
2023-03-04T11:16:01.142Z,100970.38
2023-03-04T11:19:10.894Z,100976.69
2023-03-04T11:22:18.213Z,100969.41
2023-03-04T11:25:25.393Z,100966.69
2023-03-04T11:29:01.003Z,100969.41
2023-03-04T11:32:10.003Z,100971.28
2023-03-04T11:35:21.799Z,100980.09
2023-03-04T11:38:31.953Z,100974.66
2023-03-04T11:41:35.798Z,100975.56
2023-03-04T11:44:37.385Z,100977.38
2023-03-04T11:48:12.905Z,100974.66
2023-03-04T11:51:34.360Z,100968.28
2023-03-04T11:54:53.836Z,100961.13
2023-03-04T11:58:19.230Z,100954.72
2023-03-04T12:01:44.447Z,100944.84
2023-03-04T12:05:04.249Z,100946.88
2023-03-04T12:08:36.875Z,100944.72
2023-03-04T12:11:49.546Z,100940.88
2023-03-04T12:15:01.547Z,100943.59
2023-03-04T12:18:12.083Z,100935.16
2023-03-04T12:21:24.049Z,100935.75
2023-03-04T12:24:49.934Z,100925.59
2023-03-04T12:28:21.169Z,100928.16
2023-03-04T12:31:52.562Z,100924.19
2023-03-04T12:35:19.500Z,100930.16
2023-03-04T12:38:56.300Z,100931.00
2023-03-04T12:42:21.295Z,100931.72
2023-03-04T12:45:38.049Z,100928.16
2023-03-04T12:48:42.189Z,100925.16
2023-03-04T12:51:52.740Z,100918.72
2023-03-04T12:55:00.013Z,100913.31
2023-03-04T12:58:01.916Z,100913.16
2023-03-04T13:01:16.785Z,100901.03
2023-03-04T13:04:27.880Z,100900.03
2023-03-04T13:07:49.802Z,100901.72
2023-03-04T13:10:52.389Z,100899.00
2023-03-04T13:14:07.453Z,100894.47
2023-03-04T13:17:40.872Z,100892.59
2023-03-04T13:20:43.660Z,100893.59
2023-03-04T13:23:45.233Z,100907.00
2023-03-04T13:26:46.940Z,100905.16
2023-03-04T13:29:48.444Z,100902.31
2023-03-04T13:32:49.913Z,100904.00
2023-03-04T13:35:54.407Z,100894.00
2023-03-04T13:39:00.570Z,100893.88
2023-03-04T13:42:04.264Z,100898.16
2023-03-04T13:45:34.395Z,100898.88
2023-03-04T13:48:37.345Z,100902.41
2023-03-04T13:51:43.034Z,100893.28
2023-03-04T13:54:44.579Z,100900.41
2023-03-04T13:57:50.952Z,100895.53
2023-03-04T14:00:54.959Z,100895.53
2023-03-04T14:03:56.533Z,100899.09
2023-03-04T14:07:00.612Z,100900.00
2023-03-04T14:10:08.315Z,100893.41
2023-03-04T14:13:11.228Z,100890.53
2023-03-04T14:16:18.959Z,100885.97
2023-03-04T14:19:33.495Z,100882.09
2023-03-04T14:22:41.572Z,100889.28
2023-03-04T14:25:43.067Z,100890.97
2023-03-04T14:28:50.293Z,100885.56
2023-03-04T14:31:53.824Z,100887.28
2023-03-04T14:35:01.412Z,100886.25
2023-03-04T14:38:15.926Z,100876.25
2023-03-04T14:41:22.589Z,100876.13
2023-03-04T14:44:26.865Z,100870.84
2023-03-04T14:47:41.321Z,100880.53
2023-03-04T14:50:53.118Z,100882.25
2023-03-04T14:53:56.246Z,100872.25
2023-03-04T14:56:59.652Z,100871.25
2023-03-04T15:00:19.909Z,100867.69
2023-03-04T15:03:25.574Z,100872.25
2023-03-04T15:06:30.165Z,100871.41
2023-03-04T15:09:31.715Z,100870.53
2023-03-04T15:12:37.625Z,100870.53
2023-03-04T15:15:46.934Z,100860.56
2023-03-04T15:19:06.209Z,100854.41
2023-03-04T15:22:08.097Z,100852.69
2023-03-04T15:25:15.177Z,100857.13
2023-03-04T15:28:20.346Z,100857.97
2023-03-04T15:31:25.733Z,100855.25
2023-03-04T15:34:27.409Z,100857.28
2023-03-04T15:37:29.519Z,100859.44
2023-03-04T15:40:32.312Z,100856.97
2023-03-04T15:43:33.801Z,100860.75
2023-03-04T15:46:35.531Z,100875.06
2023-03-04T15:49:37.077Z,100871.94
2023-03-04T15:52:39.626Z,100874.50
2023-03-04T15:55:44.863Z,100881.22
2023-03-04T15:58:55.162Z,100877.28
2023-03-04T16:01:56.638Z,100872.72
2023-03-04T16:04:58.130Z,100876.00
2023-03-04T16:07:59.604Z,100877.81
2023-03-04T16:11:01.178Z,100871.69
2023-03-04T16:14:02.668Z,100870.13
2023-03-04T16:17:04.422Z,100876.81
2023-03-04T16:20:06.421Z,100872.50
2023-03-04T16:23:13.295Z,100872.78
2023-03-04T16:26:20.869Z,100871.47
2023-03-04T16:29:22.387Z,100879.34
2023-03-04T16:32:24.842Z,100879.91
2023-03-04T16:35:27.688Z,100872.31
2023-03-04T16:38:34.118Z,100871.88
2023-03-04T16:41:37.068Z,100872.44
2023-03-04T16:44:38.621Z,100865.88
2023-03-04T16:47:40.093Z,100867.56
2023-03-04T16:50:41.815Z,100869.13
2023-03-04T16:53:47.173Z,100866.97
2023-03-04T16:56:48.664Z,100870.41
2023-03-04T16:59:50.666Z,100873.84
2023-03-04T17:03:01.603Z,100870.84
2023-03-04T17:06:03.110Z,100869.97
2023-03-04T17:09:09.139Z,100857.97
2023-03-04T17:12:12.372Z,100862.25
2023-03-04T17:15:14.781Z,100869.53
2023-03-04T17:18:16.315Z,100868.53
2023-03-04T17:21:23.758Z,100866.53
2023-03-04T17:24:25.984Z,100864.66
2023-03-04T17:27:27.446Z,100865.50
2023-03-04T17:30:29.006Z,100874.34
2023-03-04T17:33:30.519Z,100871.50
2023-03-04T17:36:32.151Z,100875.91
2023-03-04T17:39:33.712Z,100884.91
2023-03-04T17:42:35.246Z,100882.06
2023-03-04T17:45:43.894Z,100878.31
2023-03-04T17:48:45.690Z,100884.63
2023-03-04T17:51:47.178Z,100882.78
2023-03-04T17:54:48.744Z,100888.19
2023-03-04T17:57:52.816Z,100887.34
2023-03-04T18:01:00.879Z,100896.16
2023-03-04T18:04:02.828Z,100895.19
2023-03-04T18:07:04.321Z,100894.34
2023-03-04T18:10:06.399Z,100902.31
2023-03-04T18:13:08.559Z,100896.88
2023-03-04T18:16:11.922Z,100895.91
2023-03-04T18:19:13.519Z,100897.59
2023-03-04T18:22:15.206Z,100892.16
2023-03-04T18:25:16.897Z,100890.28
2023-03-04T18:28:18.668Z,100886.59
2023-03-04T18:31:22.097Z,100888.28
2023-03-04T18:34:23.583Z,100886.59
2023-03-04T18:37:25.072Z,100887.44
2023-03-04T18:40:28.498Z,100884.72
2023-03-04T18:43:30.030Z,100891.16
2023-03-04T18:46:31.496Z,100894.03
2023-03-04T18:49:33.376Z,100892.16
2023-03-04T18:52:36.091Z,100891.31
2023-03-04T18:55:37.598Z,100886.03
2023-03-04T18:58:42.739Z,100885.19
2023-03-04T19:01:45.517Z,100891.63
2023-03-04T19:04:49.163Z,100891.75
2023-03-04T19:07:50.846Z,100891.75
2023-03-04T19:10:52.393Z,100891.91
2023-03-04T19:13:53.894Z,100883.75
2023-03-04T19:16:55.503Z,100887.63
2023-03-04T19:19:57.080Z,100890.50
2023-03-04T19:22:58.642Z,100889.78
2023-03-04T19:26:00.156Z,100891.78
2023-03-04T19:29:01.617Z,100887.53
2023-03-04T19:32:03.168Z,100890.22
2023-03-04T19:35:05.071Z,100897.66
2023-03-04T19:38:06.643Z,100901.38
2023-03-04T19:41:10.851Z,100904.94
2023-03-04T19:44:12.323Z,100902.41
2023-03-04T19:47:13.814Z,100903.38
2023-03-04T19:50:16.168Z,100902.53
2023-03-04T19:53:18.666Z,100901.69
2023-03-04T19:56:21.447Z,100908.09
2023-03-04T19:59:22.896Z,100901.97
2023-03-04T20:02:24.355Z,100902.94
2023-03-04T20:05:25.857Z,100908.53
2023-03-04T20:08:27.358Z,100899.53
2023-03-04T20:11:29.775Z,100897.81
2023-03-04T20:14:33.062Z,100902.53
2023-03-04T20:17:34.607Z,100911.53
2023-03-04T20:20:38.126Z,100910.66
2023-03-04T20:23:39.622Z,100908.97
2023-03-04T20:26:41.080Z,100898.13
2023-03-04T20:29:42.666Z,100900.00
2023-03-04T20:32:44.914Z,100898.13
2023-03-04T20:35:46.422Z,100905.41
2023-03-04T20:38:49.058Z,100912.53
2023-03-04T20:41:50.527Z,100910.84
2023-03-04T20:44:51.996Z,100912.66
2023-03-04T20:47:53.529Z,100914.22
2023-03-04T20:50:54.968Z,100909.81
2023-03-04T20:53:57.070Z,100913.25
2023-03-04T20:56:58.701Z,100911.38
2023-03-04T21:00:00.218Z,100908.66
2023-03-04T21:03:01.706Z,100911.25
2023-03-04T21:06:04.628Z,100912.94
2023-03-04T21:09:12.890Z,100903.78
2023-03-04T21:12:14.620Z,100891.25
2023-03-04T21:15:16.242Z,100878.44
2023-03-04T21:18:17.719Z,100882.97
2023-03-04T21:21:22.223Z,100878.25
2023-03-04T21:24:26.579Z,100879.13
2023-03-04T21:27:28.417Z,100896.41
2023-03-04T21:30:29.897Z,100888.25
2023-03-04T21:33:36.265Z,100887.28
2023-03-04T21:36:37.742Z,100890.97
2023-03-04T21:39:39.359Z,100889.09
2023-03-04T21:42:40.876Z,100873.84
2023-03-04T21:45:42.365Z,100882.09
2023-03-04T21:48:44.809Z,100873.94
2023-03-04T21:51:46.527Z,100873.09
2023-03-04T21:54:48.488Z,100863.28
2023-03-04T21:57:49.975Z,100863.41
2023-03-04T22:00:52.155Z,100867.13
2023-03-04T22:03:54.339Z,100854.72
2023-03-04T22:06:55.906Z,100858.41
2023-03-04T22:09:59.374Z,100869.44
2023-03-04T22:13:00.852Z,100863.31
2023-03-04T22:16:02.646Z,100859.88
2023-03-04T22:19:04.443Z,100859.88
2023-03-04T22:22:06.455Z,100858.19
2023-03-04T22:25:08.532Z,100861.88
2023-03-04T22:28:10.045Z,100848.78
2023-03-04T22:31:19.768Z,100849.63
2023-03-04T22:34:21.407Z,100849.94
2023-03-04T22:37:22.912Z,100851.75
2023-03-04T22:40:24.625Z,100845.78
2023-03-04T22:43:26.119Z,100839.66
2023-03-04T22:46:30.077Z,100841.53
2023-03-04T22:49:33.113Z,100843.22
2023-03-04T22:52:34.656Z,100843.53
2023-03-04T22:55:36.264Z,100844.53
2023-03-04T22:58:38.459Z,100846.53
2023-03-04T23:01:40.316Z,100842.97
2023-03-04T23:04:42.994Z,100839.53
2023-03-04T23:07:44.629Z,100836.84
2023-03-04T23:10:46.118Z,100831.56
2023-03-04T23:13:49.154Z,100831.84
2023-03-04T23:16:50.850Z,100836.56
2023-03-04T23:19:52.414Z,100831.44
2023-03-04T23:22:53.940Z,100821.75
2023-03-04T23:25:55.465Z,100829.31
2023-03-04T23:28:57.157Z,100825.06
2023-03-04T23:31:58.942Z,100820.78
2023-03-04T23:35:00.531Z,100819.22
2023-03-04T23:38:02.043Z,100814.78
2023-03-04T23:41:03.646Z,100821.22
2023-03-04T23:44:06.077Z,100821.34
2023-03-04T23:47:07.813Z,100826.94
2023-03-04T23:50:10.949Z,100819.94
2023-03-04T23:53:12.423Z,100811.81
2023-03-04T23:56:17.624Z,100816.38
2023-03-04T23:59:19.080Z,100811.94
